Time;durP1;ratioP1;P1;durP2;ratioP2;P2;SDS_P1;SDS_P2;PMS_P1;PMS_P2;Temp;Humidity;BMP_temperature;BMP_pressure;BME280_temperature;BME280_humidity;BME280_pressure;Samples;Min_cycle;Max_cycle;Signal;HPM_P1;HPM_P2
2023/03/10 00:01:30;;;;;;;;;;;8.70;99.90;;;8.22;100.00;95643.16;4987272;28;1480;-79
2023/03/10 00:03:58;;;;;;;;;;;8.70;99.90;;;8.26;100.00;95610.19;4989620;28;1642;-78
2023/03/10 00:06:28;;;;;;;;;;;8.70;99.90;;;8.26;100.00;95634.28;4994850;28;1526;-79
2023/03/10 00:08:55;;;;;;;;;;;8.60;99.90;;;8.26;100.00;95590.34;4986591;28;1733;-78
2023/03/10 00:11:22;;;;;;;;;;;8.60;99.90;;;8.20;100.00;95592.50;5008320;28;1524;-78
2023/03/10 00:13:49;;;;;;;;;;;8.60;99.90;;;8.28;100.00;95601.41;4988850;28;1984;-79
2023/03/10 00:16:27;;;;;;;;;;;8.60;99.90;;;8.20;100.00;95582.97;4988188;28;1580;-80
2023/03/10 00:18:54;;;;;;;;;;;8.60;99.90;;;8.30;100.00;95573.69;4991960;28;1489;-79
2023/03/10 00:21:24;;;;;;;;;;;8.60;99.90;;;8.28;100.00;95580.72;4950512;28;1645696;-79
2023/03/10 00:23:52;;;;;;;;;;;8.50;99.90;;;8.27;100.00;95565.31;4989212;28;1441;-79
2023/03/10 00:26:20;;;;;;;;;;;8.60;99.90;;;8.28;100.00;95554.88;4994338;28;1752;-79
2023/03/10 00:28:47;;;;;;;;;;;8.60;99.90;;;8.34;100.00;95566.56;4991716;28;1088;-79
2023/03/10 00:31:17;;;;;;;;;;;8.60;99.90;;;8.32;100.00;95579.56;4995926;28;1539;-79
2023/03/10 00:33:44;;;;;;;;;;;8.70;99.90;;;8.32;100.00;95553.72;4995266;28;1899;-79
2023/03/10 00:36:14;;;;;;;;;;;8.60;99.90;;;8.26;100.00;95548.97;4994202;28;1711;-79
2023/03/10 00:38:42;;;;;;;;;;;8.70;99.90;;;8.26;100.00;95541.22;4990810;28;1461;-79
2023/03/10 00:41:13;;;;;;;;;;;8.60;99.90;;;8.24;100.00;95550.84;5009322;28;1774;-79
2023/03/10 00:43:39;;;;;;;;;;;8.60;99.90;;;8.33;100.00;95570.09;4994633;28;1418;-78
2023/03/10 00:46:07;;;;;;;;;;;8.60;99.90;;;8.35;100.00;95560.47;4996545;28;1894;-80
2023/03/10 00:48:34;;;;;;;;;;;8.70;99.90;;;8.36;100.00;95556.94;4976848;28;1583;-80
2023/03/10 00:51:03;;;;;;;;;;;8.70;99.90;;;8.31;100.00;95553.84;4991560;28;1827;-78
2023/03/10 00:53:30;;;;;;;;;;;8.60;99.90;;;8.18;100.00;95559.81;4994828;28;1436;-78
2023/03/10 00:56:09;;;;;;;;;;;8.60;99.90;;;8.16;100.00;95568.59;4990066;28;1938;-78
2023/03/10 00:58:36;;;;;;;;;;;8.60;99.90;;;8.15;100.00;95534.16;4989814;28;1355;-79
2023/03/10 01:01:05;;;;;;;;;;;8.60;99.90;;;8.09;100.00;95544.91;4999255;28;1778;-79
2023/03/10 01:03:32;;;;;;;;;;;8.60;99.90;;;8.23;100.00;95525.91;4976860;28;1232;-79
2023/03/10 01:05:59;;;;;;;;;;;8.60;99.90;;;8.20;100.00;95536.44;4994171;28;1553;-79
2023/03/10 01:08:26;;;;;;;;;;;8.50;99.90;;;8.18;100.00;95521.03;4981857;28;1462;-79
2023/03/10 01:10:53;;;;;;;;;;;8.50;99.90;;;8.18;100.00;95530.56;4998079;28;1399;-79
2023/03/10 01:13:20;;;;;;;;;;;8.40;99.90;;;8.14;100.00;95529.09;4995333;28;1292;-80
2023/03/10 01:15:49;;;;;;;;;;;8.50;99.90;;;8.14;100.00;95532.53;4996365;28;1995;-80
2023/03/10 01:18:18;;;;;;;;;;;8.50;99.90;;;8.21;100.00;95545.03;4996916;28;1586;-79
2023/03/10 01:20:47;;;;;;;;;;;8.50;99.90;;;8.25;100.00;95511.13;4995721;28;1494;-79
2023/03/10 01:23:16;;;;;;;;;;;8.50;99.90;;;8.23;100.00;95504.41;4999054;28;2297;-79
2023/03/10 01:25:43;;;;;;;;;;;8.50;99.90;;;8.21;100.00;95478.69;5009084;28;1444;-79
2023/03/10 01:28:10;;;;;;;;;;;8.60;99.90;;;8.31;100.00;95520.25;4990761;28;1895;-79
2023/03/10 01:30:38;;;;;;;;;;;8.60;99.90;;;8.34;100.00;95507.09;4989706;28;1467;-79
2023/03/10 01:33:06;;;;;;;;;;;8.60;99.90;;;8.35;100.00;95496.69;4989449;28;1707;-78
2023/03/10 01:35:33;;;;;;;;;;;8.60;99.90;;;8.37;100.00;95500.00;5005272;28;1979;-79
2023/03/10 01:38:01;;;;;;;;;;;8.60;99.90;;;8.36;100.00;95492.31;4974629;28;1566;-79
2023/03/10 01:40:28;;;;;;;;;;;8.60;99.90;;;8.34;100.00;95501.94;4972109;28;1360;-79
2023/03/10 01:43:14;;;;;;;;;;;8.60;99.90;;;8.41;100.00;95461.84;4995437;28;1413;-78
2023/03/10 01:45:44;;;;;;;;;;;8.60;99.90;;;8.44;100.00;95469.41;4990490;28;1029;-79
2023/03/10 01:48:15;;;;;;;;;;;8.80;99.90;;;8.45;100.00;95465.88;4987736;28;1863;-79
2023/03/10 01:50:45;;;;;;;;;;;8.90;99.90;;;8.44;100.00;95478.91;5002806;28;1438;-79
2023/03/10 01:53:14;;;;;;;;;;;8.90;99.90;;;8.51;100.00;95449.13;4991240;28;1497;-78
2023/03/10 01:55:46;;;;;;;;;;;8.90;99.90;;;8.49;100.00;95476.84;4988872;28;1946;-79
2023/03/10 01:58:15;;;;;;;;;;;8.90;99.90;;;8.55;100.00;95447.97;4989555;28;1814;-79
2023/03/10 02:00:42;;;;;;;;;;;8.90;99.90;;;8.54;100.00;95467.03;4988496;28;1647;-78
2023/03/10 02:03:22;;;;;;;;;;;9.00;99.90;;;8.63;100.00;95460.41;4990876;28;1814;-79
2023/03/10 02:05:56;;;;;;;;;;;9.10;99.90;;;8.58;100.00;95443.44;4992416;28;1426;-79
2023/03/10 02:08:24;;;;;;;;;;;9.00;99.90;;;8.66;100.00;95453.25;4974078;28;1653;-78
2023/03/10 02:10:51;;;;;;;;;;;9.00;99.90;;;8.69;100.00;95434.94;5001196;28;1639;-79
2023/03/10 02:13:18;;;;;;;;;;;9.10;99.90;;;8.63;100.00;95442.28;4988771;28;1560;-78
2023/03/10 02:15:45;;;;;;;;;;;9.10;99.90;;;8.59;100.00;95418.41;4993841;28;1989;-78
2023/03/10 02:18:14;;;;;;;;;;;9.10;99.90;;;8.58;100.00;95447.78;4988272;28;1651;-78
2023/03/10 02:21:03;;;;;;;;;;;9.00;99.90;;;8.63;100.00;95406.91;4993028;28;2006;-79
2023/03/10 02:23:35;;;;;;;;;;;8.90;99.90;;;8.60;100.00;95420.06;4995559;28;1637;-78
2023/03/10 02:26:19;;;;;;;;;;;8.80;99.90;;;8.62;100.00;95422.53;4991798;28;1577;-78
2023/03/10 02:28:48;;;;;;;;;;;8.90;99.90;;;8.54;100.00;95428.25;4994808;28;1487;-79
2023/03/10 02:31:15;;;;;;;;;;;8.80;99.90;;;8.42;100.00;95406.63;4991321;28;1564;-79
2023/03/10 02:33:43;;;;;;;;;;;8.80;99.90;;;8.38;100.00;95418.09;4990256;28;1512;-79
2023/03/10 02:36:22;;;;;;;;;;;8.70;99.90;;;8.40;100.00;95438.66;4989832;28;1985;-79
2023/03/10 02:38:49;;;;;;;;;;;8.70;99.90;;;8.37;100.00;95427.59;4981104;28;1481;-81
2023/03/10 02:41:26;;;;;;;;;;;8.70;99.90;;;8.44;100.00;95417.72;4994732;28;1660;-79
2023/03/10 02:43:55;;;;;;;;;;;8.70;99.90;;;8.41;100.00;95448.91;5003120;28;1454;-80
2023/03/10 02:46:23;;;;;;;;;;;8.70;99.90;;;8.45;100.00;95423.69;4975478;28;1624;-79
2023/03/10 02:48:50;;;;;;;;;;;8.70;99.90;;;8.46;100.00;95397.75;4991655;28;1632;-79
2023/03/10 02:51:29;;;;;;;;;;;8.70;99.90;;;8.51;100.00;95434.44;5005385;28;1620;-79
2023/03/10 02:53:56;;;;;;;;;;;8.70;99.90;;;8.50;100.00;95432.78;4994032;28;1350;-79
2023/03/10 02:56:23;;;;;;;;;;;8.70;99.90;;;8.50;100.00;95398.34;4993111;28;1910;-79
2023/03/10 02:58:50;;;;;;;;;;;8.80;99.90;;;8.53;100.00;95419.66;4993696;28;1363;-79
2023/03/10 03:01:18;;;;;;;;;;;8.90;99.90;;;8.54;100.00;95413.53;4988769;28;1574;-79
2023/03/10 03:03:45;;;;;;;;;;;9.00;99.90;;;8.49;100.00;95379.44;4991246;28;1440;-79
2023/03/10 03:06:12;;;;;;;;;;;9.00;99.90;;;8.50;100.00;95364.72;4989715;28;1420;-79
2023/03/10 03:08:40;;;;;;;;;;;9.00;99.90;;;8.41;100.00;95371.38;4978286;28;1500;-79
2023/03/10 03:11:07;;;;;;;;;;;8.90;99.90;;;8.46;100.00;95342.59;4987444;28;1529;-79
2023/03/10 03:13:34;;;;;;;;;;;8.90;99.90;;;8.36;100.00;95369.06;4996219;28;1337;-80
2023/03/10 03:16:01;;;;;;;;;;;8.90;99.90;;;8.40;100.00;95345.59;4995426;28;1989;-79
2023/03/10 03:18:29;;;;;;;;;;;9.00;99.90;;;8.37;100.00;95357.81;4989850;28;1559;-79
2023/03/10 03:20:56;;;;;;;;;;;8.90;99.90;;;8.47;100.00;95339.94;4992705;28;1633;-80
2023/03/10 03:23:23;;;;;;;;;;;8.90;99.90;;;8.44;100.00;95306.53;4990149;28;1576;-79
2023/03/10 03:25:50;;;;;;;;;;;8.90;99.90;;;8.41;100.00;95332.59;4991654;28;1776;-79
2023/03/10 03:28:17;;;;;;;;;;;8.90;99.90;;;8.38;100.00;95328.44;4989850;28;1530;-79
2023/03/10 03:30:44;;;;;;;;;;;8.90;99.90;;;8.35;100.00;95318.31;4994410;28;1531;-79
2023/03/10 03:33:13;;;;;;;;;;;8.90;99.90;;;8.36;100.00;95285.53;4982454;28;1640;-80
2023/03/10 03:35:43;;;;;;;;;;;8.80;99.90;;;8.28;100.00;95304.16;4993203;28;1895;-79
2023/03/10 03:38:10;;;;;;;;;;;8.70;99.90;;;8.31;100.00;95296.19;4995011;28;1694;-79
2023/03/10 03:40:38;;;;;;;;;;;8.70;99.90;;;8.18;100.00;95298.78;4990339;28;1413;-79
2023/03/10 03:43:05;;;;;;;;;;;8.70;99.90;;;8.21;100.00;95312.44;4989343;28;1172;-79
2023/03/10 03:45:32;;;;;;;;;;;8.70;99.90;;;8.18;100.00;95298.78;4986187;28;1028;-79
2023/03/10 03:47:59;;;;;;;;;;;8.80;99.90;;;8.09;100.00;95309.78;4989273;28;1405;-79
2023/03/10 03:50:27;;;;;;;;;;;8.80;99.90;;;8.18;100.00;95285.88;4989383;28;1398;-79
2023/03/10 03:52:54;;;;;;;;;;;8.70;99.90;;;8.23;100.00;95313.16;4988510;28;1600;-78
2023/03/10 03:55:21;;;;;;;;;;;8.80;99.90;;;8.14;100.00;95305.13;4988284;28;1911;-79
2023/03/10 03:57:50;;;;;;;;;;;8.80;99.90;;;8.26;100.00;95292.28;4986028;28;1404;-80
2023/03/10 04:00:19;;;;;;;;;;;8.80;99.90;;;8.20;100.00;95334.06;4991868;28;1483;-79
2023/03/10 04:02:47;;;;;;;;;;;8.80;99.90;;;8.16;100.00;95334.28;4975422;28;1460;-79
2023/03/10 04:05:14;;;;;;;;;;;8.80;99.90;;;8.14;100.00;95349.06;4989442;28;1507;-79
2023/03/10 04:07:42;;;;;;;;;;;8.80;99.90;;;8.18;100.00;95324.63;4994733;28;1603;-79
2023/03/10 04:10:15;;;;;;;;;;;8.90;99.90;;;8.14;100.00;95336.16;4977482;28;1644;-79
2023/03/10 04:12:42;;;;;;;;;;;8.80;99.90;;;8.26;100.00;95329.28;4992872;28;1746;-79
2023/03/10 04:15:10;;;;;;;;;;;8.80;99.90;;;8.26;100.00;95362.91;4994039;28;1906;-79
2023/03/10 04:17:37;;;;;;;;;;;8.80;99.90;;;8.25;100.00;95325.03;4991281;28;1753;-79
2023/03/10 04:20:06;;;;;;;;;;;8.80;99.90;;;8.29;100.00;95312.75;4995034;28;1564;-79
2023/03/10 04:22:35;;;;;;;;;;;8.90;99.90;;;8.45;100.00;95307.38;4987296;28;1512;-80
2023/03/10 04:25:04;;;;;;;;;;;8.90;99.90;;;8.30;100.00;95307.47;4977634;28;1719;-80
2023/03/10 04:27:31;;;;;;;;;;;8.80;99.90;;;8.34;100.00;95302.91;4992302;28;1953;-79
2023/03/10 04:29:58;;;;;;;;;;;8.80;99.90;;;8.27;100.00;95302.50;4987814;28;1619;-78
2023/03/10 04:32:26;;;;;;;;;;;8.90;99.90;;;8.27;100.00;95297.34;4973619;28;1644;-79
2023/03/10 04:34:53;;;;;;;;;;;8.90;99.90;;;8.40;100.00;95294.75;4990052;28;1903;-79
2023/03/10 04:37:22;;;;;;;;;;;8.80;99.90;;;8.30;100.00;95302.31;5004781;28;1886;-79
2023/03/10 04:39:49;;;;;;;;;;;8.90;99.90;;;8.29;100.00;95305.81;4990789;28;1762;-81
2023/03/10 04:42:16;;;;;;;;;;;8.90;99.90;;;8.21;100.00;95297.78;4991960;28;2178;-80
2023/03/10 04:44:43;;;;;;;;;;;8.80;99.90;;;8.27;100.00;95266.31;4992603;28;1762;-80
2023/03/10 04:47:09;;;;;;;;;;;8.70;99.90;;;8.22;100.00;95270.19;4971741;28;1973;-79
2023/03/10 04:49:37;;;;;;;;;;;8.60;99.90;;;8.23;100.00;95254.53;4990152;28;1537;-79
2023/03/10 04:52:04;;;;;;;;;;;8.50;99.90;;;8.19;100.00;95258.31;4990856;28;1727;-79
2023/03/10 04:54:31;;;;;;;;;;;8.50;99.90;;;8.23;100.00;95233.88;4988933;28;1518;-80
2023/03/10 04:56:59;;;;;;;;;;;8.50;99.90;;;8.20;100.00;95254.78;4989796;28;1979;-79
2023/03/10 04:59:26;;;;;;;;;;;8.50;99.90;;;8.23;100.00;95256.31;5004817;28;1672;-79
2023/03/10 05:01:53;;;;;;;;;;;8.50;99.90;;;8.26;100.00;95243.19;4990801;28;1602;-80
2023/03/10 05:04:20;;;;;;;;;;;8.60;99.90;;;8.23;100.00;95251.97;4989294;28;1651;-79
2023/03/10 05:06:51;;;;;;;;;;;8.60;99.90;;;8.26;100.00;95232.84;4992477;28;1643;-80
2023/03/10 05:09:18;;;;;;;;;;;8.60;99.90;;;8.22;100.00;95262.44;4989275;28;1446;-81
2023/03/10 05:11:45;;;;;;;;;;;8.60;99.90;;;8.29;100.00;95240.38;4972183;28;1469;-79
2023/03/10 05:14:15;;;;;;;;;;;8.70;99.90;;;8.36;100.00;95231.25;4989268;28;1622;-79
2023/03/10 05:16:42;;;;;;;;;;;8.80;99.90;;;8.29;100.00;95242.97;4989575;28;1987;-79
2023/03/10 05:19:10;;;;;;;;;;;8.80;99.90;;;8.29;100.00;95232.63;4991495;28;1540;-79
2023/03/10 05:21:36;;;;;;;;;;;8.90;99.90;;;8.32;100.00;95217.72;4992240;28;1682;-79
2023/03/10 05:24:04;;;;;;;;;;;8.90;99.90;;;8.33;100.00;95229.72;4991108;28;1598;-79
2023/03/10 05:26:34;;;;;;;;;;;8.90;99.90;;;8.31;100.00;95226.41;4985342;28;1533;-80
2023/03/10 05:29:01;;;;;;;;;;;8.90;99.90;;;8.40;100.00;95255.13;4989144;28;1563;-80
2023/03/10 05:31:29;;;;;;;;;;;8.90;99.90;;;8.39;100.00;95233.59;4989284;28;1578;-80
2023/03/10 05:33:56;;;;;;;;;;;9.00;99.90;;;8.36;100.00;95239.00;4989930;28;1831;-80
2023/03/10 05:36:23;;;;;;;;;;;9.00;99.90;;;8.40;100.00;95204.28;4974141;28;1883;-80
2023/03/10 05:38:50;;;;;;;;;;;9.00;99.90;;;8.42;100.00;95217.09;4990914;28;1693;-80
2023/03/10 05:41:17;;;;;;;;;;;9.00;99.90;;;8.35;100.00;95224.44;4988537;28;1654;-80
2023/03/10 05:43:44;;;;;;;;;;;8.90;99.90;;;8.40;100.00;95208.59;4992317;28;1422;-80
2023/03/10 05:46:11;;;;;;;;;;;8.90;99.90;;;8.38;100.00;95186.25;4991711;28;1580;-80
2023/03/10 05:48:39;;;;;;;;;;;8.90;99.90;;;8.37;100.00;95194.16;4990915;28;1545;-80
2023/03/10 05:51:09;;;;;;;;;;;8.90;99.90;;;8.34;100.00;95215.03;4995906;28;1599;-81
2023/03/10 05:53:36;;;;;;;;;;;8.90;99.90;;;8.34;100.00;95208.09;4995752;28;1530;-80
2023/03/10 05:56:05;;;;;;;;;;;8.90;99.90;;;8.39;100.00;95184.50;4992021;28;1891;-80
2023/03/10 05:58:32;;;;;;;;;;;8.90;99.90;;;8.40;100.00;95191.38;4993332;28;1441;-80
2023/03/10 06:00:59;;;;;;;;;;;8.90;99.90;;;8.38;100.00;95175.91;4992073;28;1608;-80
2023/03/10 06:03:28;;;;;;;;;;;8.90;99.90;;;8.30;100.00;95185.16;4990483;28;1637;-80
2023/03/10 06:05:56;;;;;;;;;;;8.90;99.90;;;8.30;100.00;95186.00;4991189;28;1510;-80
2023/03/10 06:08:25;;;;;;;;;;;8.90;99.90;;;8.44;100.00;95155.75;4986916;28;1610;-80
2023/03/10 06:10:53;;;;;;;;;;;8.80;99.90;;;8.32;100.00;95173.75;4991028;28;1475;-80
2023/03/10 06:13:20;;;;;;;;;;;8.80;99.90;;;8.30;100.00;95170.50;4995314;28;1705;-80
2023/03/10 06:15:51;;;;;;;;;;;8.80;99.90;;;8.46;100.00;95159.91;4995953;28;1887;-80
2023/03/10 06:18:19;;;;;;;;;;;8.80;99.90;;;8.38;100.00;95175.91;5001605;28;1520;-79
2023/03/10 06:20:47;;;;;;;;;;;8.90;99.90;;;8.35;100.00;95168.41;4998237;28;1435;-80
2023/03/10 06:23:14;;;;;;;;;;;8.90;99.90;;;8.43;100.00;95143.78;4996775;28;1590;-80
2023/03/10 06:25:43;;;;;;;;;;;8.80;99.90;;;8.45;100.00;95153.06;5002868;28;1591;-79
2023/03/10 06:28:10;;;;;;;;;;;8.80;99.90;;;8.42;100.00;95170.56;4998769;28;1856;-81
2023/03/10 06:30:37;;;;;;;;;;;8.90;99.90;;;8.64;100.00;95144.78;4990599;28;1536;-80
2023/03/10 06:33:04;;;;;;;;;;;9.00;99.90;;;8.64;100.00;95152.53;4992714;28;1586;-80
2023/03/10 06:35:32;;;;;;;;;;;9.10;99.90;;;8.64;100.00;95095.66;4993553;28;1979;-80
2023/03/10 06:38:00;;;;;;;;;;;9.10;99.90;;;8.49;100.00;95128.66;4975111;28;1483;-80
2023/03/10 06:40:27;;;;;;;;;;;9.00;99.90;;;8.30;100.00;95175.66;4989118;28;1594;-80
2023/03/10 06:42:53;;;;;;;;;;;8.90;99.90;;;8.25;100.00;95175.16;4991131;28;1585;-80
2023/03/10 06:45:23;;;;;;;;;;;8.80;99.90;;;8.15;100.00;95174.16;4991018;28;1496;-80
2023/03/10 06:47:51;;;;;;;;;;;8.60;99.90;;;8.20;100.00;95221.19;4992602;28;1586;-80
2023/03/10 06:50:17;;;;;;;;;;;8.60;99.90;;;8.15;100.00;95213.75;4995654;28;2101;-80
2023/03/10 06:52:46;;;;;;;;;;;8.60;99.90;;;8.15;100.00;95233.59;4990570;28;1556;-80
2023/03/10 06:55:15;;;;;;;;;;;8.40;99.90;;;7.74;100.00;95260.53;4990369;28;1563;-80
2023/03/10 06:57:42;;;;;;;;;;;8.30;99.90;;;7.11;100.00;95232.03;4989162;28;2251;-80
2023/03/10 07:00:11;;;;;;;;;;;7.90;99.90;;;7.02;100.00;95201.69;4991605;28;1698;-80
2023/03/10 07:02:39;;;;;;;;;;;7.50;99.90;;;6.94;100.00;95223.78;4986455;28;1567;-79
2023/03/10 07:05:10;;;;;;;;;;;7.40;99.90;;;6.90;100.00;95207.69;4993397;28;1482;-80
2023/03/10 07:07:37;;;;;;;;;;;7.20;99.90;;;6.67;100.00;95222.06;4980223;28;1460;-80
2023/03/10 07:10:05;;;;;;;;;;;7.10;99.90;;;6.70;100.00;95214.13;4996473;28;1474;-79
2023/03/10 07:12:34;;;;;;;;;;;7.10;99.90;;;6.69;100.00;95220.22;5005488;28;1112;-80
2023/03/10 07:15:01;;;;;;;;;;;7.00;99.90;;;6.82;100.00;95212.50;4991821;28;1415;-80
2023/03/10 07:17:29;;;;;;;;;;;7.00;99.90;;;6.83;100.00;95214.16;4996466;28;2092;-80
2023/03/10 07:20:06;;;;;;;;;;;7.00;99.90;;;6.83;100.00;95217.56;4988346;28;1428;-80
2023/03/10 07:22:33;;;;;;;;;;;7.10;99.90;;;7.01;100.00;95215.53;4993121;28;1404;-79
2023/03/10 07:25:00;;;;;;;;;;;7.10;99.90;;;6.95;100.00;95209.94;4993225;28;1125;-80
2023/03/10 07:27:27;;;;;;;;;;;7.10;99.90;;;7.02;100.00;95217.16;4992429;28;1238;-79
2023/03/10 07:29:54;;;;;;;;;;;7.20;99.90;;;7.13;100.00;95216.47;4988645;28;1354;-80
2023/03/10 07:32:22;;;;;;;;;;;7.40;99.90;;;7.19;100.00;95226.38;4992364;28;1060;-79
2023/03/10 07:34:53;;;;;;;;;;;7.50;99.90;;;7.30;100.00;95218.75;4999430;28;1366;-80
2023/03/10 07:37:20;;;;;;;;;;;7.70;99.90;;;7.22;100.00;95225.34;4990357;28;1910;-80
2023/03/10 07:39:47;;;;;;;;;;;;;;;7.38;100.00;95223.38;4995111;28;1305;-80
2023/03/10 07:42:15;;;;;;;;;;;7.80;99.90;;;7.36;100.00;95222.66;5012216;28;1158;-79
2023/03/10 07:44:42;;;;;;;;;;;7.80;99.90;;;7.26;100.00;95237.13;4996784;28;1008;-79
2023/03/10 07:47:08;;;;;;;;;;;7.80;99.90;;;7.21;100.00;95234.84;5000827;28;1394;-79
2023/03/10 07:49:36;;;;;;;;;;;7.80;99.90;;;7.10;100.00;95245.88;5009987;28;1419;-80
2023/03/10 07:52:03;;;;;;;;;;;7.80;99.90;;;7.12;100.00;95243.22;4982556;28;1034;-80
2023/03/10 07:54:30;;;;;;;;;;;7.70;99.90;;;6.94;100.00;95268.44;4995041;28;1108;-80
2023/03/10 07:56:57;;;;;;;;;;;7.50;99.90;;;6.98;100.00;95257.00;4997996;28;1879;-80
2023/03/10 07:59:25;;;;;;;;;;;7.50;99.90;;;6.94;100.00;95270.22;4998236;28;1382;-80
2023/03/10 08:01:52;;;;;;;;;;;7.50;99.90;;;7.12;100.00;95264.66;4987264;28;1081;-80
2023/03/10 08:04:19;;;;;;;;;;;7.50;99.90;;;7.03;100.00;95265.25;4994898;28;1469;-79
2023/03/10 08:06:46;;;;;;;;;;;7.40;99.90;;;7.09;100.00;95279.50;4994523;28;1082;-80
2023/03/10 08:09:13;;;;;;;;;;;7.50;99.90;;;7.12;100.00;95274.97;4982306;28;1285;-79
2023/03/10 08:11:40;;;;;;;;;;;7.60;99.90;;;7.22;100.00;95287.28;5018563;28;1048;-79
2023/03/10 08:14:07;;;;;;;;;;;7.70;99.90;;;7.31;100.00;95300.38;4989392;28;1108;-79
2023/03/10 08:16:36;;;;;;;;;;;7.70;99.90;;;7.07;100.00;95292.53;4972817;28;1966;-79
2023/03/10 08:19:03;;;;;;;;;;;7.80;99.90;;;7.08;100.00;95295.91;4984250;28;1347;-79
2023/03/10 08:21:30;;;;;;;;;;;7.70;99.90;;;7.18;100.00;95278.91;4993533;28;1286;-80
2023/03/10 08:23:58;;;;;;;;;;;7.70;99.90;;;7.11;100.00;95311.19;4988275;28;969;-80
2023/03/10 08:26:26;;;;;;;;;;;7.80;99.90;;;7.27;100.00;95282.63;4991099;28;1218;-80
2023/03/10 08:28:54;;;;;;;;;;;7.90;99.90;;;7.23;100.00;95302.66;4988736;28;1438;-80
2023/03/10 08:31:22;;;;;;;;;;;8.00;99.90;;;7.20;100.00;95325.25;4989477;28;1463;-80
2023/03/10 08:33:54;;;;;;;;;;;8.00;99.90;;;7.36;100.00;95301.84;4990278;28;1364;-80
2023/03/10 08:36:23;;;;;;;;;;;8.10;99.90;;;7.26;100.00;95315.34;4987058;28;1985;-80
2023/03/10 08:38:52;;;;;;;;;;;7.90;99.90;;;7.05;100.00;95329.66;5004629;28;1334;-80
2023/03/10 08:41:28;;;;;;;;;;;7.70;99.90;;;6.95;100.00;95331.97;4986135;28;2217;-80
2023/03/10 08:43:56;;;;;;;;;;;7.50;99.90;;;6.77;100.00;95349.44;4973643;28;1398;-80
2023/03/10 08:46:25;;;;;;;;;;;7.40;99.90;;;7.08;100.00;95345.75;4989432;28;1425;-80
2023/03/10 08:48:53;;;;;;;;;;;7.40;99.90;;;7.04;100.00;95333.16;4988501;28;1208;-80
2023/03/10 08:51:20;;;;;;;;;;;7.30;99.90;;;6.83;100.00;95354.22;4972562;28;1593;-82
2023/03/10 08:53:49;;;;;;;;;;;7.30;99.90;;;6.69;100.00;95357.69;4990584;28;1049;-80
2023/03/10 08:56:19;;;;;;;;;;;7.30;99.90;;;6.84;100.00;95345.59;4978113;28;1974;-80
2023/03/10 08:58:46;;;;;;;;;;;7.30;99.90;;;6.84;100.00;95353.31;4991063;28;1025;-80
2023/03/10 09:01:16;;;;;;;;;;;7.40;99.90;;;6.86;100.00;95341.13;4986830;28;1274;-80
2023/03/10 09:03:44;;;;;;;;;;;7.40;99.90;;;6.96;100.00;95338.00;4988930;28;1489;-82
2023/03/10 09:06:12;;;;;;;;;;;7.50;99.90;;;7.15;100.00;95337.63;4984017;28;1555;-80
2023/03/10 09:08:40;;;;;;;;;;;7.60;99.90;;;7.21;100.00;95339.81;4992313;28;1603;-80
2023/03/10 09:11:09;;;;;;;;;;;7.70;99.90;;;7.46;100.00;95332.13;4991847;28;1629;-81
2023/03/10 09:13:39;;;;;;;;;;;7.80;99.90;;;7.44;100.00;95352.03;4990006;28;1445;-81
2023/03/10 09:16:08;;;;;;;;;;;7.90;99.90;;;7.31;100.00;95348.59;4988665;28;1914;-80
2023/03/10 09:18:37;;;;;;;;;;;8.00;99.90;;;7.29;100.00;95343.53;4989774;28;1420;-80
2023/03/10 09:21:07;;;;;;;;;;;8.00;99.90;;;7.29;100.00;95355.59;5000240;28;1408;-80
2023/03/10 09:23:33;;;;;;;;;;;7.90;99.90;;;7.54;100.00;95347.91;4983932;28;1332;-80
2023/03/10 09:26:01;;;;;;;;;;;7.90;99.90;;;7.44;100.00;95340.88;4977767;28;1196;-80
2023/03/10 09:28:28;;;;;;;;;;;7.90;99.90;;;7.39;100.00;95364.41;4996083;28;1461;-81
2023/03/10 09:30:56;;;;;;;;;;;7.90;99.90;;;7.45;100.00;95360.59;4987370;28;1266;-81
2023/03/10 09:33:23;;;;;;;;;;;8.00;99.90;;;7.38;100.00;95373.06;4996406;28;1468;-81
2023/03/10 09:35:51;;;;;;;;;;;8.00;99.90;;;7.83;100.00;95370.97;5010804;28;1450;-81
2023/03/10 09:38:32;;;;;;;;;;;8.00;99.90;;;7.60;100.00;95384.59;4997417;28;1611;-80
2023/03/10 09:41:17;;;;;;;;;;;8.00;99.90;;;7.59;100.00;95367.44;4997280;28;1367;-80
2023/03/10 09:43:49;;;;;;;;;;;8.10;99.90;;;7.78;100.00;95365.28;5011811;28;1105;-81
2023/03/10 09:47:05;;;;;;;;;;;8.00;99.90;;;7.68;100.00;95402.97;4982701;28;1388;-80
2023/03/10 09:49:37;;;;;;;;;;;8.10;99.90;;;7.81;100.00;95369.41;4995414;28;1506;-80
2023/03/10 09:52:28;;;;;;;;;;;8.00;99.90;;;7.94;100.00;95389.16;4976727;28;1346;-80
2023/03/10 09:55:05;;;;;;;;;;;8.20;99.90;;;7.81;100.00;95403.00;4983129;28;1553;-80
2023/03/10 09:57:32;;;;;;;;;;;8.20;99.90;;;8.04;100.00;95373.03;4987344;28;1965;-80
2023/03/10 10:00:04;;;;;;;;;;;8.20;99.90;;;7.71;100.00;95385.53;4981233;28;1319;-80
2023/03/10 10:02:34;;;;;;;;;;;8.20;99.90;;;7.87;100.00;95372.44;4971219;28;1403;-81
2023/03/10 10:05:06;;;;;;;;;;;8.20;99.90;;;7.71;100.00;95370.03;4989631;28;1533;-81
2023/03/10 10:07:47;;;;;;;;;;;8.20;99.90;;;8.01;100.00;95399.09;4990625;28;1606;-81
2023/03/10 10:10:17;;;;;;;;;;;8.30;99.90;;;8.14;100.00;95381.81;4993377;28;1366;-80
2023/03/10 10:12:46;;;;;;;;;;;8.30;99.90;;;8.11;100.00;95382.03;4988685;28;1140;-81
2023/03/10 10:15:16;;;;;;;;;;;8.20;99.90;;;8.11;100.00;95387.19;4998811;28;1155;-81
2023/03/10 10:18:04;;;;;;;;;;;8.30;99.90;;;8.09;100.00;95383.88;5012707;28;1910;-81
2023/03/10 10:21:13;;;;;;;;;;;8.30;99.90;;;8.23;100.00;95390.69;4995858;28;1281;-81
2023/03/10 10:23:46;;;;;;;;;;;8.30;99.90;;;8.26;100.00;95373.22;4991660;28;1578;-81
2023/03/10 10:26:16;;;;;;;;;;;8.30;99.90;;;8.15;100.00;95375.72;4984401;28;1488;-80
2023/03/10 10:28:46;;;;;;;;;;;8.20;99.90;;;8.07;100.00;95386.56;5008038;28;1414;-80
2023/03/10 10:31:19;;;;;;;;;;;8.10;99.90;;;7.95;100.00;95395.16;5001353;28;1435;-81
2023/03/10 10:34:00;;;;;;;;;;;8.20;99.90;;;8.01;100.00;95379.25;4997019;28;1627;-81
2023/03/10 10:36:33;;;;;;;;;;;8.30;99.90;;;7.93;100.00;95376.34;4994516;28;2000;-81
2023/03/10 10:39:02;;;;;;;;;;;8.30;99.90;;;7.78;100.00;95387.69;4996247;28;1339;-80
2023/03/10 10:41:32;;;;;;;;;;;8.30;99.90;;;7.66;100.00;95390.19;4991561;28;1202;-81
2023/03/10 10:44:08;;;;;;;;;;;8.20;99.90;;;8.02;100.00;95370.56;4990035;28;1105;-80
2023/03/10 10:46:35;;;;;;;;;;;8.20;99.90;;;8.23;100.00;95376.00;4987885;28;1324;-81
2023/03/10 10:49:17;;;;;;;;;;;8.20;99.90;;;8.11;100.00;95361.34;4992124;28;1388;-81
2023/03/10 10:51:59;;;;;;;;;;;8.20;99.90;;;8.18;100.00;95355.66;4992843;28;1477;-80
2023/03/10 10:54:53;;;;;;;;;;;8.30;99.90;;;7.89;100.00;95392.97;4987397;28;1580;-81
2023/03/10 10:57:23;;;;;;;;;;;8.30;99.90;;;7.89;100.00;95369.72;5007917;28;1902;-80
2023/03/10 10:59:50;;;;;;;;;;;8.10;99.90;;;7.80;100.00;95373.78;4987930;28;1590;-81
2023/03/10 11:02:32;;;;;;;;;;;8.10;99.90;;;7.88;100.00;95381.81;4994136;28;1644;-81
2023/03/10 11:05:14;;;;;;;;;;;8.10;99.90;;;7.90;100.00;95367.03;4978087;28;1433;-81
2023/03/10 11:07:42;;;;;;;;;;;8.20;99.90;;;7.96;100.00;95387.31;4991396;28;1691;-81
2023/03/10 11:10:14;;;;;;;;;;;8.20;99.90;;;8.06;100.00;95369.41;4989785;28;1433;-81
2023/03/10 11:12:51;;;;;;;;;;;8.20;99.90;;;7.86;100.00;95375.91;4995965;28;1704;-81
2023/03/10 11:15:27;;;;;;;;;;;8.20;99.90;;;7.84;100.00;95384.69;4995065;28;1654;-81
2023/03/10 11:18:08;;;;;;;;;;;8.20;99.90;;;7.99;100.00;95388.03;4995620;28;1887;-80
2023/03/10 11:20:41;;;;;;;;;;;8.20;99.90;;;8.03;100.00;95390.31;4998527;28;1963;-80
2023/03/10 11:23:26;;;;;;;;;;;8.20;99.90;;;8.12;100.00;95383.69;4996165;28;1551;-80
2023/03/10 11:26:05;;;;;;;;;;;8.20;99.90;;;7.91;100.00;95378.19;4997087;28;1640;-80
2023/03/10 11:29:11;;;;;;;;;;;8.20;99.90;;;8.10;100.00;95382.97;5000010;28;1418;-80
2023/03/10 11:32:07;;;;;;;;;;;8.30;99.90;;;7.95;100.00;95387.41;4998470;28;1422;-80
2023/03/10 11:34:48;;;;;;;;;;;8.30;99.90;;;7.88;100.00;95402.47;4979743;28;1407;-80
2023/03/10 11:37:33;;;;;;;;;;;8.20;99.90;;;7.73;100.00;95390.56;4994742;28;1887;-80
2023/03/10 11:40:18;;;;;;;;;;;8.20;99.90;;;7.79;100.00;95381.59;4993976;28;1653;-80
2023/03/10 11:42:54;;;;;;;;;;;8.10;99.90;;;7.94;100.00;95375.44;4997740;28;1479;-80
2023/03/10 11:45:54;;;;;;;;;;;8.10;99.90;;;7.72;100.00;95384.59;5001053;28;1222;-80
2023/03/10 11:48:45;;;;;;;;;;;8.00;99.90;;;7.67;100.00;95402.16;4997028;28;1409;-80